sensor_id;sensor_type;location;lat;lon;timestamp;pressure;altitude;pressure_sealevel;temperature;humidity
64876;BME280;51369;49.862;9.908;2023-06-14T00:00:04;97974.84;;;18.83;44.03
64876;BME280;51369;49.862;9.908;2023-06-14T00:02:30;97975.84;;;18.71;43.83
64876;BME280;51369;49.862;9.908;2023-06-14T00:04:56;97970.47;;;18.58;44.13
64876;BME280;51369;49.862;9.908;2023-06-14T00:07:33;97968.88;;;18.44;44.39
64876;BME280;51369;49.862;9.908;2023-06-14T00:09:59;97962.28;;;18.36;45.12
64876;BME280;51369;49.862;9.908;2023-06-14T00:12:25;97963.28;;;18.24;44.84
64876;BME280;51369;49.862;9.908;2023-06-14T00:14:50;97961.28;;;18.14;44.52
64876;BME280;51369;49.862;9.908;2023-06-14T00:17:16;97960.28;;;18.04;45.22
64876;BME280;51369;49.862;9.908;2023-06-14T00:19:41;97960.00;;;17.96;45.18
64876;BME280;51369;49.862;9.908;2023-06-14T00:22:07;97954.28;;;17.88;44.85
64876;BME280;51369;49.862;9.908;2023-06-14T00:24:32;97960.47;;;17.79;45.33
64876;BME280;51369;49.862;9.908;2023-06-14T00:26:58;97951.00;;;17.72;45.57
64876;BME280;51369;49.862;9.908;2023-06-14T00:29:23;97956.97;;;17.66;44.81
64876;BME280;51369;49.862;9.908;2023-06-14T00:31:49;97955.53;;;17.60;45.86
64876;BME280;51369;49.862;9.908;2023-06-14T00:34:14;97955.03;;;17.55;45.55
64876;BME280;51369;49.862;9.908;2023-06-14T00:36:40;97946.56;;;17.47;44.91
64876;BME280;51369;49.862;9.908;2023-06-14T00:39:05;97961.56;;;17.41;46.07
64876;BME280;51369;49.862;9.908;2023-06-14T00:41:31;97959.19;;;17.37;45.60
64876;BME280;51369;49.862;9.908;2023-06-14T00:43:57;97957.72;;;17.33;45.36
64876;BME280;51369;49.862;9.908;2023-06-14T00:46:23;97949.00;;;17.28;44.68
64876;BME280;51369;49.862;9.908;2023-06-14T00:48:49;97956.44;;;17.26;44.99
64876;BME280;51369;49.862;9.908;2023-06-14T00:51:15;97954.56;;;17.26;46.35
64876;BME280;51369;49.862;9.908;2023-06-14T00:53:40;97953.94;;;17.22;46.11
64876;BME280;51369;49.862;9.908;2023-06-14T00:56:11;97956.53;;;17.24;46.24
64876;BME280;51369;49.862;9.908;2023-06-14T00:58:39;97956.78;;;17.21;45.36
64876;BME280;51369;49.862;9.908;2023-06-14T01:01:05;97955.03;;;17.20;46.15
64876;BME280;51369;49.862;9.908;2023-06-14T01:03:31;97946.09;;;17.18;46.23
64876;BME280;51369;49.862;9.908;2023-06-14T01:06:18;97952.78;;;17.14;46.60
64876;BME280;51369;49.862;9.908;2023-06-14T01:09:01;97951.91;;;17.13;47.08
64876;BME280;51369;49.862;9.908;2023-06-14T01:11:41;97950.28;;;17.11;46.84
64876;BME280;51369;49.862;9.908;2023-06-14T01:14:12;97942.22;;;17.09;47.18
64876;BME280;51369;49.862;9.908;2023-06-14T01:16:39;97944.19;;;17.07;46.20
64876;BME280;51369;49.862;9.908;2023-06-14T01:19:05;97946.06;;;17.07;47.34
64876;BME280;51369;49.862;9.908;2023-06-14T01:21:34;97942.56;;;17.05;47.38
64876;BME280;51369;49.862;9.908;2023-06-14T01:24:08;97940.94;;;17.02;47.22
64876;BME280;51369;49.862;9.908;2023-06-14T01:26:35;97947.63;;;16.98;46.42
64876;BME280;51369;49.862;9.908;2023-06-14T01:29:03;97946.84;;;16.96;46.60
64876;BME280;51369;49.862;9.908;2023-06-14T01:31:29;97945.22;;;16.94;46.87
64876;BME280;51369;49.862;9.908;2023-06-14T01:34:05;97948.31;;;16.89;47.38
64876;BME280;51369;49.862;9.908;2023-06-14T01:36:30;97946.69;;;16.86;47.61
64876;BME280;51369;49.862;9.908;2023-06-14T01:38:58;97938.09;;;16.80;47.42
64876;BME280;51369;49.862;9.908;2023-06-14T01:41:26;97937.44;;;16.76;47.19
64876;BME280;51369;49.862;9.908;2023-06-14T01:43:52;97933.97;;;16.74;47.59
64876;BME280;51369;49.862;9.908;2023-06-14T01:46:20;97928.75;;;16.71;47.84
64876;BME280;51369;49.862;9.908;2023-06-14T01:48:45;97938.13;;;16.67;48.10
64876;BME280;51369;49.862;9.908;2023-06-14T01:51:11;97937.56;;;16.62;47.74
64876;BME280;51369;49.862;9.908;2023-06-14T01:53:36;97930.59;;;16.58;46.96
64876;BME280;51369;49.862;9.908;2023-06-14T01:56:01;97932.56;;;16.56;47.75
64876;BME280;51369;49.862;9.908;2023-06-14T01:58:29;97933.56;;;16.55;47.62
64876;BME280;51369;49.862;9.908;2023-06-14T02:00:56;97936.50;;;16.52;47.88
64876;BME280;51369;49.862;9.908;2023-06-14T02:03:23;97936.72;;;16.49;47.44
64876;BME280;51369;49.862;9.908;2023-06-14T02:05:49;97931.50;;;16.46;46.99
64876;BME280;51369;49.862;9.908;2023-06-14T02:08:16;97935.09;;;16.46;47.87
64876;BME280;51369;49.862;9.908;2023-06-14T02:10:41;97934.22;;;16.46;47.77
64876;BME280;51369;49.862;9.908;2023-06-14T02:13:07;97931.50;;;16.46;48.78
64876;BME280;51369;49.862;9.908;2023-06-14T02:15:32;97933.34;;;16.45;47.94
64876;BME280;51369;49.862;9.908;2023-06-14T02:18:02;97933.47;;;16.44;47.97
64876;BME280;51369;49.862;9.908;2023-06-14T02:20:28;97939.91;;;16.43;47.45
64876;BME280;51369;49.862;9.908;2023-06-14T02:22:54;97945.34;;;16.43;47.46
64876;BME280;51369;49.862;9.908;2023-06-14T02:25:19;97943.38;;;16.45;48.88
64876;BME280;51369;49.862;9.908;2023-06-14T02:27:45;97952.53;;;16.44;48.03
64876;BME280;51369;49.862;9.908;2023-06-14T02:30:11;97949.94;;;16.42;47.25
64876;BME280;51369;49.862;9.908;2023-06-14T02:32:36;97948.94;;;16.43;47.64
64876;BME280;51369;49.862;9.908;2023-06-14T02:35:02;97949.94;;;16.42;47.79
64876;BME280;51369;49.862;9.908;2023-06-14T02:37:27;97948.19;;;16.41;46.18
64876;BME280;51369;49.862;9.908;2023-06-14T02:39:53;97954.50;;;16.42;47.36
64876;BME280;51369;49.862;9.908;2023-06-14T02:42:18;97951.78;;;16.42;48.31
64876;BME280;51369;49.862;9.908;2023-06-14T02:44:44;97951.69;;;16.43;48.44
64876;BME280;51369;49.862;9.908;2023-06-14T02:47:10;97958.09;;;16.42;47.18
64876;BME280;51369;49.862;9.908;2023-06-14T02:49:35;97964.31;;;16.44;48.19
64876;BME280;51369;49.862;9.908;2023-06-14T02:52:01;97958.00;;;16.44;48.42
64876;BME280;51369;49.862;9.908;2023-06-14T02:54:28;97955.28;;;16.44;48.42
64876;BME280;51369;49.862;9.908;2023-06-14T02:56:53;97955.38;;;16.42;47.63
64876;BME280;51369;49.862;9.908;2023-06-14T02:59:19;97961.69;;;16.43;47.90
64876;BME280;51369;49.862;9.908;2023-06-14T03:01:46;97961.69;;;16.43;48.84
64876;BME280;51369;49.862;9.908;2023-06-14T03:04:13;97960.06;;;16.40;48.49
64876;BME280;51369;49.862;9.908;2023-06-14T03:06:40;97967.59;;;16.37;45.53
64876;BME280;51369;49.862;9.908;2023-06-14T03:09:09;97964.00;;;16.36;47.54
64876;BME280;51369;49.862;9.908;2023-06-14T03:11:37;97968.69;;;16.34;47.85
64876;BME280;51369;49.862;9.908;2023-06-14T03:14:03;97970.75;;;16.31;48.44
64876;BME280;51369;49.862;9.908;2023-06-14T03:16:29;97976.44;;;16.27;47.89
64876;BME280;51369;49.862;9.908;2023-06-14T03:18:55;97972.09;;;16.25;47.53
64876;BME280;51369;49.862;9.908;2023-06-14T03:21:23;97975.03;;;16.22;48.34
64876;BME280;51369;49.862;9.908;2023-06-14T03:23:50;97982.44;;;16.20;48.61
64876;BME280;51369;49.862;9.908;2023-06-14T03:26:16;97977.22;;;16.17;49.01
64876;BME280;51369;49.862;9.908;2023-06-14T03:28:45;97980.16;;;16.14;48.49
64876;BME280;51369;49.862;9.908;2023-06-14T03:31:11;97985.69;;;16.12;49.67
64876;BME280;51369;49.862;9.908;2023-06-14T03:33:37;97981.34;;;16.10;48.88
64876;BME280;51369;49.862;9.908;2023-06-14T03:36:03;97980.47;;;16.09;47.41
64876;BME280;51369;49.862;9.908;2023-06-14T03:38:29;97980.47;;;16.09;48.12
64876;BME280;51369;49.862;9.908;2023-06-14T03:40:54;97988.66;;;16.09;48.25
64876;BME280;51369;49.862;9.908;2023-06-14T03:43:20;97990.59;;;16.07;46.98
64876;BME280;51369;49.862;9.908;2023-06-14T03:45:45;97993.34;;;16.07;48.49
64876;BME280;51369;49.862;9.908;2023-06-14T03:48:11;97997.91;;;16.07;48.99
64876;BME280;51369;49.862;9.908;2023-06-14T03:50:37;97993.56;;;16.04;48.01
64876;BME280;51369;49.862;9.908;2023-06-14T03:53:05;98004.44;;;16.04;47.06
64876;BME280;51369;49.862;9.908;2023-06-14T03:55:31;98000.84;;;16.04;49.40
64876;BME280;51369;49.862;9.908;2023-06-14T03:57:58;97999.88;;;16.05;49.31
64876;BME280;51369;49.862;9.908;2023-06-14T04:00:23;98006.28;;;16.04;49.30
64876;BME280;51369;49.862;9.908;2023-06-14T04:02:49;98015.34;;;16.04;48.39
64876;BME280;51369;49.862;9.908;2023-06-14T04:05:14;98006.41;;;16.02;48.37
64876;BME280;51369;49.862;9.908;2023-06-14T04:07:48;98028.19;;;16.02;49.38
64876;BME280;51369;49.862;9.908;2023-06-14T04:10:15;98021.00;;;16.01;49.78
64876;BME280;51369;49.862;9.908;2023-06-14T04:12:40;98025.69;;;15.99;50.55
64876;BME280;51369;49.862;9.908;2023-06-14T04:15:06;98021.22;;;15.98;49.02
64876;BME280;51369;49.862;9.908;2023-06-14T04:17:33;98032.09;;;15.98;49.82
64876;BME280;51369;49.862;9.908;2023-06-14T04:20:02;98024.16;;;15.95;48.97
64876;BME280;51369;49.862;9.908;2023-06-14T04:22:30;98028.50;;;15.98;49.52
64876;BME280;51369;49.862;9.908;2023-06-14T04:24:58;98032.09;;;15.98;49.81
64876;BME280;51369;49.862;9.908;2023-06-14T04:27:26;98036.56;;;15.99;50.13
64876;BME280;51369;49.862;9.908;2023-06-14T04:29:52;98040.16;;;16.00;49.74
64876;BME280;51369;49.862;9.908;2023-06-14T04:32:32;98047.25;;;16.02;49.53
64876;BME280;51369;49.862;9.908;2023-06-14T04:35:08;98047.13;;;16.04;50.61
64876;BME280;51369;49.862;9.908;2023-06-14T04:37:34;98053.25;;;16.07;51.18
64876;BME280;51369;49.862;9.908;2023-06-14T04:40:00;98044.09;;;16.08;51.56
64876;BME280;51369;49.862;9.908;2023-06-14T04:42:26;98051.38;;;16.08;49.37
64876;BME280;51369;49.862;9.908;2023-06-14T04:44:58;98054.78;;;16.11;50.74
64876;BME280;51369;49.862;9.908;2023-06-14T04:47:24;98058.25;;;16.13;49.90
64876;BME280;51369;49.862;9.908;2023-06-14T04:49:50;98056.97;;;16.19;50.29
64876;BME280;51369;49.862;9.908;2023-06-14T04:52:20;98057.63;;;16.22;51.67
64876;BME280;51369;49.862;9.908;2023-06-14T04:54:46;98063.81;;;16.24;50.34
64876;BME280;51369;49.862;9.908;2023-06-14T04:57:16;98069.06;;;16.27;49.67
64876;BME280;51369;49.862;9.908;2023-06-14T04:59:43;98068.84;;;16.31;49.71
64876;BME280;51369;49.862;9.908;2023-06-14T05:02:10;98063.94;;;16.36;47.57
64876;BME280;51369;49.862;9.908;2023-06-14T05:04:36;98075.38;;;16.41;50.77
64876;BME280;51369;49.862;9.908;2023-06-14T05:07:08;98070.47;;;16.46;50.29
64876;BME280;51369;49.862;9.908;2023-06-14T05:09:37;98074.63;;;16.51;50.49
64876;BME280;51369;49.862;9.908;2023-06-14T05:12:03;98066.97;;;16.56;50.02
64876;BME280;51369;49.862;9.908;2023-06-14T05:14:29;98067.41;;;16.63;50.99
64876;BME280;51369;49.862;9.908;2023-06-14T05:16:56;98064.28;;;16.69;51.00
64876;BME280;51369;49.862;9.908;2023-06-14T05:19:22;98068.31;;;16.76;51.09
64876;BME280;51369;49.862;9.908;2023-06-14T05:21:47;98070.47;;;16.84;51.48
64876;BME280;51369;49.862;9.908;2023-06-14T05:24:13;98069.81;;;16.93;49.97
64876;BME280;51369;49.862;9.908;2023-06-14T05:26:39;98057.34;;;17.02;48.37
64876;BME280;51369;49.862;9.908;2023-06-14T05:29:05;98069.09;;;17.15;50.64
64876;BME280;51369;49.862;9.908;2023-06-14T05:31:30;98073.63;;;17.27;49.30
64876;BME280;51369;49.862;9.908;2023-06-14T05:33:56;98082.97;;;17.36;47.39
64876;BME280;51369;49.862;9.908;2023-06-14T05:36:21;98091.09;;;17.48;49.87
64876;BME280;51369;49.862;9.908;2023-06-14T05:38:47;98084.94;;;17.57;49.21
64876;BME280;51369;49.862;9.908;2023-06-14T05:41:13;98093.53;;;17.64;50.17
64876;BME280;51369;49.862;9.908;2023-06-14T05:43:38;98085.69;;;17.72;49.52
64876;BME280;51369;49.862;9.908;2023-06-14T05:46:03;98081.50;;;17.79;48.50
64876;BME280;51369;49.862;9.908;2023-06-14T05:48:30;98094.31;;;17.90;49.67
64876;BME280;51369;49.862;9.908;2023-06-14T05:50:56;98082.69;;;17.99;49.04
64876;BME280;51369;49.862;9.908;2023-06-14T05:53:21;98083.72;;;18.09;48.88
64876;BME280;51369;49.862;9.908;2023-06-14T05:55:46;98093.94;;;18.18;48.59
64876;BME280;51369;49.862;9.908;2023-06-14T05:58:12;98086.00;;;18.27;48.62
64876;BME280;51369;49.862;9.908;2023-06-14T06:00:39;98089.88;;;18.35;48.77
64876;BME280;51369;49.862;9.908;2023-06-14T06:03:04;98084.69;;;18.43;48.77
64876;BME280;51369;49.862;9.908;2023-06-14T06:05:30;98088.53;;;18.52;48.82
64876;BME280;51369;49.862;9.908;2023-06-14T06:07:55;98090.56;;;18.61;49.30
64876;BME280;51369;49.862;9.908;2023-06-14T06:10:21;98089.09;;;18.68;47.75
64876;BME280;51369;49.862;9.908;2023-06-14T06:12:46;98093.06;;;18.75;47.76
64876;BME280;51369;49.862;9.908;2023-06-14T06:15:13;98088.84;;;18.82;48.00
64876;BME280;51369;49.862;9.908;2023-06-14T06:17:39;98090.97;;;18.90;48.10
64876;BME280;51369;49.862;9.908;2023-06-14T06:20:06;98092.47;;;18.94;47.24
64876;BME280;51369;49.862;9.908;2023-06-14T06:22:34;98097.31;;;19.02;48.20
64876;BME280;51369;49.862;9.908;2023-06-14T06:24:59;98103.88;;;19.10;47.81
64876;BME280;51369;49.862;9.908;2023-06-14T06:27:25;98102.50;;;19.16;47.49
64876;BME280;51369;49.862;9.908;2023-06-14T06:29:51;98105.47;;;19.24;47.98
64876;BME280;51369;49.862;9.908;2023-06-14T06:32:17;98106.72;;;19.31;47.06
64876;BME280;51369;49.862;9.908;2023-06-14T06:34:42;98107.19;;;19.36;47.54
64876;BME280;51369;49.862;9.908;2023-06-14T06:37:08;98112.91;;;19.44;47.39
64876;BME280;51369;49.862;9.908;2023-06-14T06:39:33;98120.53;;;19.52;47.35
64876;BME280;51369;49.862;9.908;2023-06-14T06:41:59;98120.50;;;19.63;47.63
64876;BME280;51369;49.862;9.908;2023-06-14T06:44:32;98117.88;;;19.73;47.89
64876;BME280;51369;49.862;9.908;2023-06-14T06:46:57;98123.56;;;19.81;47.78
64876;BME280;51369;49.862;9.908;2023-06-14T06:49:23;98123.66;;;19.91;46.46
64876;BME280;51369;49.862;9.908;2023-06-14T06:52:05;98124.00;;;19.97;46.89
64876;BME280;51369;49.862;9.908;2023-06-14T06:54:30;98128.84;;;20.05;46.56
64876;BME280;51369;49.862;9.908;2023-06-14T06:56:56;98124.56;;;20.12;46.42
64876;BME280;51369;49.862;9.908;2023-06-14T06:59:22;98121.31;;;20.18;46.41
64876;BME280;51369;49.862;9.908;2023-06-14T07:01:47;98129.00;;;20.24;45.73
64876;BME280;51369;49.862;9.908;2023-06-14T07:04:13;98132.34;;;20.28;45.70
64876;BME280;51369;49.862;9.908;2023-06-14T07:06:38;98124.59;;;20.33;45.17
64876;BME280;51369;49.862;9.908;2023-06-14T07:09:03;98130.69;;;20.36;45.00
64876;BME280;51369;49.862;9.908;2023-06-14T07:11:31;98133.69;;;20.44;45.21
64876;BME280;51369;49.862;9.908;2023-06-14T07:13:57;98143.09;;;20.52;45.26
64876;BME280;51369;49.862;9.908;2023-06-14T07:16:22;98135.50;;;20.55;43.57
64876;BME280;51369;49.862;9.908;2023-06-14T07:18:48;98122.25;;;20.60;44.59
64876;BME280;51369;49.862;9.908;2023-06-14T07:21:13;98127.06;;;20.68;44.53
64876;BME280;51369;49.862;9.908;2023-06-14T07:23:39;98132.59;;;20.77;44.90
64876;BME280;51369;49.862;9.908;2023-06-14T07:26:05;98126.41;;;20.85;44.36
64876;BME280;51369;49.862;9.908;2023-06-14T07:28:30;98132.09;;;20.93;44.56
64876;BME280;51369;49.862;9.908;2023-06-14T07:30:55;98130.41;;;21.02;43.98
64876;BME280;51369;49.862;9.908;2023-06-14T07:33:21;98134.06;;;21.12;44.61
64876;BME280;51369;49.862;9.908;2023-06-14T07:35:46;98138.72;;;21.21;43.34
64876;BME280;51369;49.862;9.908;2023-06-14T07:38:13;98137.19;;;21.28;43.57
64876;BME280;51369;49.862;9.908;2023-06-14T07:40:38;98134.78;;;21.35;43.74
64876;BME280;51369;49.862;9.908;2023-06-14T07:43:03;98130.47;;;21.42;43.04
64876;BME280;51369;49.862;9.908;2023-06-14T07:45:29;98137.41;;;21.46;43.19
64876;BME280;51369;49.862;9.908;2023-06-14T07:47:54;98144.22;;;21.52;43.09
64876;BME280;51369;49.862;9.908;2023-06-14T07:50:20;98136.44;;;21.57;42.99
64876;BME280;51369;49.862;9.908;2023-06-14T07:52:45;98139.50;;;21.63;42.82
64876;BME280;51369;49.862;9.908;2023-06-14T07:55:12;98139.94;;;21.68;42.02
64876;BME280;51369;49.862;9.908;2023-06-14T07:57:37;98146.75;;;21.74;42.77
64876;BME280;51369;49.862;9.908;2023-06-14T08:00:03;98144.31;;;21.81;42.47
64876;BME280;51369;49.862;9.908;2023-06-14T08:02:37;98140.56;;;21.82;41.89
64876;BME280;51369;49.862;9.908;2023-06-14T08:05:02;98142.44;;;21.81;41.56
64876;BME280;51369;49.862;9.908;2023-06-14T08:07:28;98148.66;;;21.83;41.89
64876;BME280;51369;49.862;9.908;2023-06-14T08:09:53;98142.00;;;21.86;42.32
64876;BME280;51369;49.862;9.908;2023-06-14T08:12:18;98148.69;;;21.93;42.44
64876;BME280;51369;49.862;9.908;2023-06-14T08:14:44;98144.97;;;22.03;42.19
64876;BME280;51369;49.862;9.908;2023-06-14T08:17:10;98146.41;;;22.07;41.66
64876;BME280;51369;49.862;9.908;2023-06-14T08:19:35;98143.53;;;22.09;41.38
64876;BME280;51369;49.862;9.908;2023-06-14T08:22:00;98149.59;;;22.13;41.65
64876;BME280;51369;49.862;9.908;2023-06-14T08:24:26;98142.94;;;22.15;40.93
64876;BME280;51369;49.862;9.908;2023-06-14T08:26:54;98142.66;;;22.18;40.95
64876;BME280;51369;49.862;9.908;2023-06-14T08:29:20;98149.75;;;22.21;41.30
64876;BME280;51369;49.862;9.908;2023-06-14T08:31:46;98150.19;;;22.26;41.12
64876;BME280;51369;49.862;9.908;2023-06-14T08:34:11;98142.66;;;22.28;40.06
64876;BME280;51369;49.862;9.908;2023-06-14T08:36:37;98141.66;;;22.29;41.09
64876;BME280;51369;49.862;9.908;2023-06-14T08:39:02;98145.56;;;22.36;41.59
64876;BME280;51369;49.862;9.908;2023-06-14T08:41:28;98144.41;;;22.38;40.78
64876;BME280;51369;49.862;9.908;2023-06-14T08:43:54;98153.66;;;22.47;41.09
64876;BME280;51369;49.862;9.908;2023-06-14T08:46:20;98150.00;;;22.56;40.16
64876;BME280;51369;49.862;9.908;2023-06-14T08:48:52;98146.09;;;22.59;40.40
64876;BME280;51369;49.862;9.908;2023-06-14T08:51:18;98152.91;;;22.64;40.43
64876;BME280;51369;49.862;9.908;2023-06-14T08:53:44;98152.75;;;22.66;40.27
64876;BME280;51369;49.862;9.908;2023-06-14T08:56:11;98155.81;;;22.63;39.85
64876;BME280;51369;49.862;9.908;2023-06-14T08:58:41;98158.41;;;22.64;40.09
64876;BME280;51369;49.862;9.908;2023-06-14T09:01:11;98145.38;;;22.66;40.05
64876;BME280;51369;49.862;9.908;2023-06-14T09:03:41;98144.06;;;22.70;40.73
64876;BME280;51369;49.862;9.908;2023-06-14T09:06:08;98148.84;;;22.78;39.84
64876;BME280;51369;49.862;9.908;2023-06-14T09:08:40;98148.72;;;22.80;39.87
64876;BME280;51369;49.862;9.908;2023-06-14T09:11:08;98144.66;;;22.84;39.88
64876;BME280;51369;49.862;9.908;2023-06-14T09:13:33;98151.31;;;22.91;40.20
64876;BME280;51369;49.862;9.908;2023-06-14T09:15:59;98157.66;;;23.01;40.19
64876;BME280;51369;49.862;9.908;2023-06-14T09:18:38;98166.19;;;23.08;39.23
64876;BME280;51369;49.862;9.908;2023-06-14T09:21:09;98166.31;;;23.16;39.42
64876;BME280;51369;49.862;9.908;2023-06-14T09:23:46;98163.97;;;23.21;39.39
64876;BME280;51369;49.862;9.908;2023-06-14T09:26:16;98164.53;;;23.24;38.80
64876;BME280;51369;49.862;9.908;2023-06-14T09:28:46;98165.13;;;23.28;39.58
64876;BME280;51369;49.862;9.908;2023-06-14T09:31:17;98175.38;;;23.35;38.99
64876;BME280;51369;49.862;9.908;2023-06-14T09:33:49;98171.00;;;23.43;39.21
64876;BME280;51369;49.862;9.908;2023-06-14T09:36:21;98170.84;;;23.54;38.31
64876;BME280;51369;49.862;9.908;2023-06-14T09:38:52;98161.97;;;23.60;38.48
64876;BME280;51369;49.862;9.908;2023-06-14T09:41:17;98173.81;;;23.70;38.72
64876;BME280;51369;49.862;9.908;2023-06-14T09:43:43;98169.28;;;23.79;38.50
64876;BME280;51369;49.862;9.908;2023-06-14T09:46:10;98168.50;;;23.86;38.22
64876;BME280;51369;49.862;9.908;2023-06-14T09:48:36;98172.06;;;23.96;38.04
64876;BME280;51369;49.862;9.908;2023-06-14T09:51:01;98171.63;;;24.01;37.58
64876;BME280;51369;49.862;9.908;2023-06-14T09:53:29;98173.19;;;24.04;36.53
64876;BME280;51369;49.862;9.908;2023-06-14T09:55:57;98180.19;;;23.98;36.32
64876;BME280;51369;49.862;9.908;2023-06-14T09:58:26;98166.09;;;24.01;37.68
64876;BME280;51369;49.862;9.908;2023-06-14T10:00:54;98165.31;;;24.09;36.95
64876;BME280;51369;49.862;9.908;2023-06-14T10:03:28;98169.09;;;24.08;36.77
64876;BME280;51369;49.862;9.908;2023-06-14T10:05:55;98163.59;;;24.08;37.01
64876;BME280;51369;49.862;9.908;2023-06-14T10:08:24;98163.13;;;24.12;37.38
64876;BME280;51369;49.862;9.908;2023-06-14T10:10:51;98162.81;;;24.15;36.86
64876;BME280;51369;49.862;9.908;2023-06-14T10:13:16;98168.88;;;24.19;37.11
64876;BME280;51369;49.862;9.908;2023-06-14T10:18:31;98172.03;;;24.24;37.22
64876;BME280;51369;49.862;9.908;2023-06-14T10:21:06;98170.56;;;24.29;36.57
64876;BME280;51369;49.862;9.908;2023-06-14T10:23:37;98169.53;;;24.30;36.12
64876;BME280;51369;49.862;9.908;2023-06-14T10:26:04;98171.03;;;24.25;35.67
64876;BME280;51369;49.862;9.908;2023-06-14T10:28:30;98171.63;;;24.19;36.10
64876;BME280;51369;49.862;9.908;2023-06-14T10:31:11;98166.13;;;24.19;35.96
64876;BME280;51369;49.862;9.908;2023-06-14T10:33:56;98159.97;;;24.25;35.57
64876;BME280;51369;49.862;9.908;2023-06-14T10:41:34;98173.94;;;24.41;35.28
64876;BME280;51369;49.862;9.908;2023-06-14T10:46:54;98163.06;;;24.40;35.13
64876;BME280;51369;49.862;9.908;2023-06-14T10:49:36;98168.91;;;24.37;34.85
64876;BME280;51369;49.862;9.908;2023-06-14T10:52:08;98167.16;;;24.36;36.27
64876;BME280;51369;49.862;9.908;2023-06-14T10:54:37;98166.28;;;24.35;35.91
64876;BME280;51369;49.862;9.908;2023-06-14T10:57:06;98168.66;;;24.30;36.33
64876;BME280;51369;49.862;9.908;2023-06-14T10:59:32;98167.28;;;24.26;36.11
64876;BME280;51369;49.862;9.908;2023-06-14T11:04:39;98158.19;;;24.33;36.30
64876;BME280;51369;49.862;9.908;2023-06-14T11:07:33;98168.44;;;24.41;35.71
64876;BME280;51369;49.862;9.908;2023-06-14T11:10:39;98157.84;;;24.54;34.48
64876;BME280;51369;49.862;9.908;2023-06-14T11:13:06;98159.75;;;24.72;34.09
64876;BME280;51369;49.862;9.908;2023-06-14T11:15:33;98152.06;;;24.83;34.91
64876;BME280;51369;49.862;9.908;2023-06-14T11:18:03;98151.09;;;24.92;34.01
64876;BME280;51369;49.862;9.908;2023-06-14T11:20:31;98151.53;;;24.97;34.82
64876;BME280;51369;49.862;9.908;2023-06-14T11:22:57;98153.81;;;25.02;35.11
64876;BME280;51369;49.862;9.908;2023-06-14T11:25:22;98148.50;;;25.09;34.75
64876;BME280;51369;49.862;9.908;2023-06-14T11:27:51;98138.53;;;25.16;35.27
64876;BME280;51369;49.862;9.908;2023-06-14T11:30:17;98150.34;;;25.26;33.76
64876;BME280;51369;49.862;9.908;2023-06-14T11:32:46;98139.50;;;25.33;34.51
64876;BME280;51369;49.862;9.908;2023-06-14T11:35:11;98140.41;;;25.41;34.77
64876;BME280;51369;49.862;9.908;2023-06-14T11:37:37;98139.41;;;25.50;34.10
64876;BME280;51369;49.862;9.908;2023-06-14T11:40:04;98136.50;;;25.52;33.62
64876;BME280;51369;49.862;9.908;2023-06-14T11:42:34;98132.69;;;25.53;33.99
64876;BME280;51369;49.862;9.908;2023-06-14T11:45:00;98137.22;;;25.62;33.75
64876;BME280;51369;49.862;9.908;2023-06-14T11:47:36;98132.97;;;25.68;33.39
64876;BME280;51369;49.862;9.908;2023-06-14T11:50:02;98132.81;;;25.69;32.42
64876;BME280;51369;49.862;9.908;2023-06-14T11:52:28;98136.59;;;25.68;33.55
64876;BME280;51369;49.862;9.908;2023-06-14T11:54:53;98135.41;;;25.71;32.94
64876;BME280;51369;49.862;9.908;2023-06-14T11:57:19;98140.97;;;25.79;33.80
64876;BME280;51369;49.862;9.908;2023-06-14T11:59:45;98126.81;;;25.90;33.38
64876;BME280;51369;49.862;9.908;2023-06-14T12:02:15;98141.34;;;25.92;32.34
64876;BME280;51369;49.862;9.908;2023-06-14T12:04:42;98134.09;;;25.91;32.62
64876;BME280;51369;49.862;9.908;2023-06-14T12:07:15;98138.94;;;25.97;33.05
64876;BME280;51369;49.862;9.908;2023-06-14T12:12:28;98139.13;;;26.04;32.50
64876;BME280;51369;49.862;9.908;2023-06-14T12:14:55;98136.34;;;26.04;31.94
64876;BME280;51369;49.862;9.908;2023-06-14T12:17:21;98120.63;;;26.12;33.71
64876;BME280;51369;49.862;9.908;2023-06-14T12:19:48;98135.72;;;26.26;33.33
64876;BME280;51369;49.862;9.908;2023-06-14T12:22:16;98140.44;;;26.34;32.03
64876;BME280;51369;49.862;9.908;2023-06-14T12:24:43;98136.56;;;26.26;31.17
64876;BME280;51369;49.862;9.908;2023-06-14T12:27:08;98129.28;;;26.17;32.32
64876;BME280;51369;49.862;9.908;2023-06-14T12:29:35;98133.09;;;26.16;33.03
64876;BME280;51369;49.862;9.908;2023-06-14T12:32:01;98128.44;;;26.17;32.23
64876;BME280;51369;49.862;9.908;2023-06-14T12:34:27;98121.50;;;26.21;31.93
64876;BME280;51369;49.862;9.908;2023-06-14T12:36:53;98134.19;;;26.32;30.94
64876;BME280;51369;49.862;9.908;2023-06-14T12:39:19;98121.22;;;26.40;31.15
64876;BME280;51369;49.862;9.908;2023-06-14T12:41:45;98138.19;;;26.45;32.16
64876;BME280;51369;49.862;9.908;2023-06-14T12:44:11;98140.28;;;26.43;31.55
64876;BME280;51369;49.862;9.908;2023-06-14T12:46:37;98137.50;;;26.35;32.58
64876;BME280;51369;49.862;9.908;2023-06-14T12:49:04;98142.97;;;26.27;32.65
64876;BME280;51369;49.862;9.908;2023-06-14T12:51:30;98139.84;;;26.14;31.80
64876;BME280;51369;49.862;9.908;2023-06-14T12:53:56;98140.84;;;26.05;31.75
64876;BME280;51369;49.862;9.908;2023-06-14T12:56:21;98141.88;;;26.04;32.28
64876;BME280;51369;49.862;9.908;2023-06-14T12:58:46;98131.53;;;26.22;32.59
64876;BME280;51369;49.862;9.908;2023-06-14T13:01:12;98139.91;;;26.38;31.77
64876;BME280;51369;49.862;9.908;2023-06-14T13:03:37;98137.84;;;26.40;31.82
64876;BME280;51369;49.862;9.908;2023-06-14T13:06:03;98148.56;;;26.35;31.35
64876;BME280;51369;49.862;9.908;2023-06-14T13:08:29;98146.28;;;26.31;32.49
64876;BME280;51369;49.862;9.908;2023-06-14T13:10:55;98145.56;;;26.28;32.17
64876;BME280;51369;49.862;9.908;2023-06-14T13:13:21;98135.53;;;26.27;33.32
64876;BME280;51369;49.862;9.908;2023-06-14T13:15:46;98135.38;;;26.29;32.03